Time;durP1;ratioP1;P1;durP2;ratioP2;P2;SDS_P1;SDS_P2;PMS_P1;PMS_P2;Temp;Humidity;BMP_temperature;BMP_pressure;BME280_temperature;BME280_humidity;BME280_pressure;Samples;Min_cycle;Max_cycle;Signal;HPM_P1;HPM_P2
2023/06/22 00:01:48;;;;;;;4.90;3.97;;;22.10;99.90;;;;;;5055587;28;20198;-56
2023/06/22 00:04:15;;;;;;;9.10;5.60;;;22.00;99.90;;;;;;5062438;28;20201;-55
2023/06/22 00:06:42;;;;;;;4.70;3.90;;;22.00;99.90;;;;;;5055517;28;20267;-55
2023/06/22 00:09:10;;;;;;;5.80;5.07;;;21.90;99.90;;;;;;5055995;28;20649;-55
2023/06/22 00:11:37;;;;;;;5.37;3.87;;;21.80;99.90;;;;;;5049756;28;20194;-55
2023/06/22 00:14:04;;;;;;;6.80;4.37;;;21.80;99.90;;;;;;5062635;28;20674;-55
2023/06/22 00:16:32;;;;;;;5.10;4.60;;;21.80;99.90;;;;;;5065503;28;20221;-55
2023/06/22 00:19:00;;;;;;;4.57;4.10;;;21.80;99.90;;;;;;5060821;28;20555;-55
2023/06/22 00:21:27;;;;;;;5.80;4.47;;;21.80;99.90;;;;;;5062371;28;20205;-56
2023/06/22 00:23:55;;;;;;;4.87;4.47;;;21.80;99.90;;;;;;5060151;28;20266;-55
2023/06/22 00:26:22;;;;;;;6.73;4.77;;;21.80;99.90;;;;;;5044243;28;20221;-55
2023/06/22 00:28:49;;;;;;;5.43;5.03;;;21.90;99.90;;;;;;5049897;28;20275;-56
2023/06/22 00:31:16;;;;;;;7.40;5.43;;;21.90;99.90;;;;;;5062555;28;20675;-55
2023/06/22 00:33:45;;;;;;;5.13;4.67;;;21.90;99.90;;;;;;5062226;28;20205;-55
2023/06/22 00:36:13;;;;;;;7.47;4.80;;;21.90;99.90;;;;;;5051617;28;20268;-55
2023/06/22 00:38:41;;;;;;;5.00;4.40;;;21.80;99.90;;;;;;5058379;28;20217;-55
2023/06/22 00:41:07;;;;;;;5.50;4.13;;;21.70;99.90;;;;;;5052094;28;20208;-55
2023/06/22 00:43:34;;;;;;;5.77;4.43;;;21.70;99.90;;;;;;5048541;28;20251;-55
2023/06/22 00:46:01;;;;;;;11.83;6.43;;;21.80;99.90;;;;;;5065184;28;20791;-55
2023/06/22 00:48:28;;;;;;;9.23;6.20;;;21.70;99.90;;;;;;5062503;28;20224;-55
2023/06/22 00:50:57;;;;;;;6.00;4.30;;;21.50;99.90;;;;;;5061522;28;20268;-55
2023/06/22 00:53:24;;;;;;;7.30;5.63;;;21.40;99.90;;;;;;5070895;28;20259;-56
2023/06/22 00:55:51;;;;;;;5.53;5.10;;;21.30;99.90;;;;;;5071393;28;20714;-55
2023/06/22 00:58:21;;;;;;;9.57;5.20;;;21.20;99.90;;;;;;5060885;28;20200;-55
2023/06/22 01:00:49;;;;;;;8.83;5.13;;;21.20;99.90;;;;;;5052118;28;20208;-56
2023/06/22 01:03:16;;;;;;;5.10;4.57;;;21.20;99.90;;;;;;5071043;28;20201;-55
2023/06/22 01:05:46;;;;;;;7.33;5.70;;;21.20;99.90;;;;;;5073230;28;20229;-55
2023/06/22 01:08:37;;;;;;;7.87;5.30;;;21.20;99.90;;;;;;5075676;28;20207;-55
2023/06/22 01:11:09;;;;;;;8.33;5.03;;;21.20;99.90;;;;;;5066452;28;20200;-55
2023/06/22 01:13:43;;;;;;;8.40;5.20;;;21.30;99.90;;;;;;5073008;28;20200;-55
2023/06/22 01:16:15;;;;;;;9.20;5.50;;;21.40;99.90;;;;;;5055496;28;20214;-55
2023/06/22 01:18:44;;;;;;;7.00;5.27;;;21.30;99.90;;;;;;5054352;28;20194;-56
2023/06/22 01:21:15;;;;;;;5.47;4.97;;;21.20;99.90;;;;;;5055844;28;20194;-55
2023/06/22 01:23:58;;;;;;;6.60;4.57;;;21.10;99.90;;;;;;5061296;28;20221;-55
2023/06/22 01:26:38;;;;;;;8.23;5.33;;;21.00;99.90;;;;;;5075078;28;20346;-55
2023/06/22 01:29:09;;;;;;;10.07;5.73;;;21.00;99.90;;;;;;5070619;28;20217;-55
2023/06/22 01:31:36;;;;;;;6.53;4.83;;;21.00;99.90;;;;;;5058573;28;20209;-55
2023/06/22 01:34:06;;;;;;;6.87;5.00;;;21.10;99.90;;;;;;5063073;28;20257;-56
2023/06/22 01:36:34;;;;;;;7.13;5.10;;;21.10;99.90;;;;;;5055095;28;20710;-55
2023/06/22 01:39:03;;;;;;;5.93;5.40;;;21.10;99.90;;;;;;5052386;28;20263;-55
2023/06/22 01:41:32;;;;;;;7.30;5.33;;;21.10;99.90;;;;;;5054998;28;20668;-55
2023/06/22 01:44:00;;;;;;;10.33;5.13;;;21.10;99.90;;;;;;5054811;28;20618;-56
2023/06/22 01:46:28;;;;;;;5.83;5.00;;;21.20;99.90;;;;;;5054935;28;20229;-56
2023/06/22 01:48:56;;;;;;;5.87;5.37;;;21.20;99.90;;;;;;5054798;28;20294;-55
2023/06/22 01:51:23;;;;;;;10.80;6.13;;;21.20;99.90;;;;;;5052469;28;20713;-55
2023/06/22 01:53:50;;;;;;;7.07;5.00;;;21.40;99.90;;;;;;5053756;28;20255;-55
2023/06/22 01:56:18;;;;;;;12.33;6.03;;;21.40;99.90;;;;;;5054840;28;20225;-55
2023/06/22 01:58:52;;;;;;;6.77;5.03;;;21.40;99.90;;;;;;5054624;28;20676;-55
2023/06/22 02:01:29;;;;;;;7.23;5.53;;;21.50;99.90;;;;;;5054339;28;20667;-56
2023/06/22 02:04:04;;;;;;;8.27;5.53;;;21.60;99.90;;;;;;5052610;28;20615;-56
2023/06/22 02:06:36;;;;;;;9.90;5.80;;;21.60;99.90;;;;;;5061960;28;20588;-55
2023/06/22 02:09:09;;;;;;;10.83;5.13;;;21.70;99.90;;;;;;5061829;28;20227;-55
2023/06/22 02:11:37;;;;;;;9.30;5.17;;;21.70;99.90;;;;;;5057459;28;20197;-55
2023/06/22 02:14:07;;;;;;;6.30;4.47;;;21.70;99.90;;;;;;5054086;28;20745;-55
2023/06/22 02:16:34;;;;;;;4.80;4.47;;;21.60;99.90;;;;;;5052502;28;20654;-55
2023/06/22 02:19:04;;;;;;;5.93;4.50;;;21.50;99.90;;;;;;5064904;28;20627;-55
2023/06/22 02:21:31;;;;;;;7.63;4.93;;;21.50;99.90;;;;;;5066712;28;20255;-55
2023/06/22 02:23:58;;;;;;;9.83;5.67;;;21.50;99.90;;;;;;5065544;28;20201;-55
2023/06/22 02:26:26;;;;;;;8.83;5.47;;;21.40;99.90;;;;;;5074125;28;20220;-55
2023/06/22 02:28:53;;;;;;;6.97;5.03;;;21.30;99.90;;;;;;5070842;28;20358;-55
2023/06/22 02:31:21;;;;;;;6.37;4.77;;;21.30;99.90;;;;;;5062059;28;20248;-55
2023/06/22 02:33:48;;;;;;;7.70;5.27;;;21.30;99.90;;;;;;5070994;28;20223;-55
2023/06/22 02:36:16;;;;;;;11.23;6.77;;;21.30;99.90;;;;;;5070248;28;20221;-55
2023/06/22 02:38:47;;;;;;;10.97;5.77;;;21.50;99.90;;;;;;5049162;28;20271;-57
2023/06/22 02:41:17;;;;;;;9.20;6.93;;;21.70;99.90;;;;;;5059874;28;20229;-55
2023/06/22 02:43:46;;;;;;;10.27;6.77;;;21.80;99.90;;;;;;5059175;28;20201;-55
2023/06/22 02:46:13;;;;;;;9.53;6.67;;;21.70;99.90;;;;;;5073469;28;20323;-56
2023/06/22 02:48:40;;;;;;;12.87;7.17;;;21.60;99.90;;;;;;5073761;28;20255;-55
2023/06/22 02:51:07;;;;;;;9.07;6.40;;;21.60;99.90;;;;;;5073584;28;20224;-55
2023/06/22 02:53:36;;;;;;;14.67;8.30;;;21.60;99.90;;;;;;5065251;28;20202;-55
2023/06/22 02:56:05;;;;;;;10.20;6.43;;;21.50;99.90;;;;;;5052651;28;20236;-56
2023/06/22 02:58:33;;;;;;;10.17;6.30;;;21.50;99.90;;;;;;5068670;28;20284;-55
2023/06/22 03:01:04;;;;;;;12.83;7.07;;;21.50;99.90;;;;;;5073642;28;20296;-55
2023/06/22 03:03:31;;;;;;;10.13;6.73;;;21.40;99.90;;;;;;5072939;28;20209;-55
2023/06/22 03:05:58;;;;;;;8.57;7.07;;;21.40;99.90;;;;;;5073576;28;20225;-56
2023/06/22 03:08:25;;;;;;;11.47;7.50;;;21.40;99.90;;;;;;5062985;28;20258;-55
2023/06/22 03:10:53;;;;;;;14.93;7.57;;;21.40;99.90;;;;;;5059942;28;20267;-55
2023/06/22 03:13:20;;;;;;;7.83;6.80;;;21.40;99.90;;;;;;5059652;28;20240;-55
2023/06/22 03:15:47;;;;;;;12.40;8.87;;;21.40;99.90;;;;;;5051992;28;20218;-55
2023/06/22 03:18:15;;;;;;;10.53;6.83;;;21.30;99.90;;;;;;5060469;28;20210;-55
2023/06/22 03:20:42;;;;;;;9.47;6.40;;;21.30;99.90;;;;;;5069921;28;20570;-55
2023/06/22 03:23:09;;;;;;;8.40;7.10;;;21.20;99.90;;;;;;5072936;28;20201;-55
2023/06/22 03:25:36;;;;;;;14.57;7.27;;;21.20;99.90;;;;;;5072791;28;20632;-55
2023/06/22 03:28:05;;;;;;;12.90;7.40;;;21.20;99.90;;;;;;5051037;28;20193;-55
2023/06/22 03:30:32;;;;;;;10.40;6.67;;;21.20;99.90;;;;;;5052580;28;20217;-55
2023/06/22 03:32:59;;;;;;;12.40;6.43;;;21.10;99.90;;;;;;5052871;28;20202;-55
2023/06/22 03:35:26;;;;;;;9.40;7.10;;;21.00;99.90;;;;;;5052655;28;20605;-55
2023/06/22 03:37:53;;;;;;;8.60;6.20;;;21.00;99.90;;;;;;5052627;28;20206;-55
2023/06/22 03:40:20;;;;;;;18.63;9.10;;;20.90;99.90;;;;;;5059351;28;20221;-55
2023/06/22 03:42:47;;;;;;;14.47;6.60;;;20.90;99.90;;;;;;5065126;28;20225;-55
2023/06/22 03:45:16;;;;;;;15.60;6.80;;;20.90;99.90;;;;;;5063930;28;20275;-55
2023/06/22 03:47:43;;;;;;;17.07;7.77;;;20.90;99.90;;;;;;5072509;28;20247;-55
2023/06/22 03:50:10;;;;;;;11.00;6.23;;;20.90;99.90;;;;;;5072474;28;20228;-55
2023/06/22 03:52:37;;;;;;;7.87;7.17;;;21.00;99.90;;;;;;5059364;28;20202;-55
2023/06/22 03:55:05;;;;;;;10.80;6.87;;;20.90;99.90;;;;;;5071710;28;20733;-55
2023/06/22 03:57:32;;;;;;;7.63;6.93;;;20.90;99.90;;;;;;5072260;28;20197;-55
2023/06/22 03:59:59;;;;;;;12.43;7.40;;;20.90;99.90;;;;;;5058595;28;20193;-55
2023/06/22 04:02:28;;;;;;;7.30;6.37;;;20.90;99.90;;;;;;5051725;28;20198;-55
2023/06/22 04:04:55;;;;;;;9.23;6.17;;;20.90;99.90;;;;;;5059539;28;20251;-55
2023/06/22 04:07:24;;;;;;;9.63;5.67;;;20.90;99.90;;;;;;5065814;28;20201;-55
2023/06/22 04:09:51;;;;;;;13.17;7.20;;;20.90;99.90;;;;;;5072273;28;20229;-55
2023/06/22 04:12:18;;;;;;;10.60;6.57;;;20.90;99.90;;;;;;5071881;28;20197;-55
2023/06/22 04:14:45;;;;;;;11.87;6.60;;;21.00;99.90;;;;;;5065215;28;20194;-55
2023/06/22 04:17:14;;;;;;;10.03;6.20;;;21.00;99.90;;;;;;5052725;28;20222;-54
2023/06/22 04:19:42;;;;;;;14.93;8.53;;;21.00;99.90;;;;;;5068577;28;20193;-54
2023/06/22 04:22:10;;;;;;;16.60;8.40;;;21.10;99.90;;;;;;5054685;28;20640;-55
2023/06/22 04:24:37;;;;;;;11.77;7.17;;;21.20;99.90;;;;;;5051825;28;20240;-55
2023/06/22 04:27:05;;;;;;;10.67;7.17;;;21.20;99.90;;;;;;5051915;28;20271;-55
2023/06/22 04:29:32;;;;;;;7.50;6.73;;;21.20;99.90;;;;;;5051781;28;20213;-55
2023/06/22 04:32:02;;;;;;;12.63;7.00;;;21.20;99.90;;;;;;5050782;28;20208;-54
2023/06/22 04:34:30;;;;;;;11.73;6.03;;;21.30;99.90;;;;;;5061526;28;20285;-55
2023/06/22 04:36:59;;;;;;;8.43;6.57;;;21.30;99.90;;;;;;5043078;28;20312;-55
2023/06/22 04:39:27;;;;;;;13.73;6.33;;;21.40;99.90;;;;;;5048020;28;20248;-55
2023/06/22 04:42:00;;;;;;;11.77;6.80;;;21.40;99.90;;;;;;5050248;28;20202;-55
2023/06/22 04:44:27;;;;;;;10.87;6.33;;;21.40;99.90;;;;;;5053859;28;20193;-54
2023/06/22 04:46:59;;;;;;;12.23;8.10;;;21.50;99.90;;;;;;5060277;28;20744;-55
2023/06/22 04:49:32;;;;;;;11.60;6.97;;;21.60;99.90;;;;;;5062784;28;20251;-55
2023/06/22 04:52:01;;;;;;;11.97;5.83;;;21.80;99.90;;;;;;5058472;28;20202;-55
2023/06/22 04:54:28;;;;;;;9.63;6.20;;;22.00;99.90;;;;;;5059343;28;20209;-55
2023/06/22 04:56:57;;;;;;;10.47;7.20;;;22.20;99.90;;;;;;5055352;28;20295;-55
2023/06/22 04:59:28;;;;;;;9.10;6.40;;;22.30;99.90;;;;;;5049818;28;20236;-55
2023/06/22 05:01:55;;;;;;;11.37;6.33;;;22.40;99.90;;;;;;5047520;28;20660;-54
2023/06/22 05:04:24;;;;;;;7.27;5.60;;;22.60;99.90;;;;;;5064802;28;20200;-54
2023/06/22 05:06:51;;;;;;;8.50;6.20;;;22.80;99.90;;;;;;5071386;28;20312;-54
2023/06/22 05:09:19;;;;;;;12.53;7.47;;;22.90;99.90;;;;;;5071427;28;20205;-54
2023/06/22 05:11:46;;;;;;;13.07;8.27;;;23.00;99.90;;;;;;5065002;28;20756;-55
2023/06/22 05:14:13;;;;;;;7.57;6.87;;;23.20;99.90;;;;;;5050085;28;20205;-54
2023/06/22 05:16:42;;;;;;;14.53;6.83;;;23.40;99.90;;;;;;5036204;28;20218;-55
2023/06/22 05:19:09;;;;;;;10.67;6.97;;;23.40;99.90;;;;;;5031345;28;20560;-55
2023/06/22 05:21:36;;;;;;;10.07;6.93;;;23.60;99.90;;;;;;5031458;28;20199;-55
2023/06/22 05:24:03;;;;;;;10.70;8.40;;;23.80;99.90;;;;;;5031286;28;20206;-55
2023/06/22 05:26:33;;;;;;;11.03;7.33;;;23.80;99.90;;;;;;5031291;28;20222;-54
2023/06/22 05:29:00;;;;;;;10.20;8.20;;;23.70;99.90;;;;;;5038756;28;20210;-55
2023/06/22 05:31:27;;;;;;;10.83;8.13;;;23.80;99.90;;;;;;5050291;28;20222;-54
2023/06/22 05:33:55;;;;;;;9.70;7.50;;;24.10;99.90;;;;;;5051203;28;20202;-55
2023/06/22 05:36:24;;;;;;;14.17;8.13;;;24.50;99.90;;;;;;5051350;28;20226;-55
2023/06/22 05:38:52;;;;;;;13.40;6.80;;;24.70;99.90;;;;;;5051132;28;20229;-55
2023/06/22 05:41:19;;;;;;;11.53;8.33;;;25.20;99.90;;;;;;5051036;28;20255;-55
2023/06/22 05:43:48;;;;;;;13.40;8.17;;;25.60;99.90;;;;;;5050945;28;20209;-55
2023/06/22 05:46:15;;;;;;;14.80;7.30;;;26.10;99.90;;;;;;5046092;28;20580;-55
2023/06/22 05:48:42;;;;;;;11.13;6.93;;;26.90;99.90;;;;;;5082297;22;20258;-58
2023/06/22 05:51:09;;;;;;;11.97;7.17;;;27.50;99.90;;;;;;5066531;28;20221;-58
2023/06/22 05:53:35;;;;;;;16.90;7.68;;;28.10;99.90;;;;;;5072464;28;20247;-59
2023/06/22 05:56:04;;;;;;;12.20;7.70;;;28.60;99.90;;;;;;5072795;28;20246;-58
2023/06/22 05:58:30;;;;;;;12.38;8.00;;;28.70;99.90;;;;;;5072118;28;20221;-58
2023/06/22 06:01:00;;;;;;;15.68;6.95;;;29.20;99.90;;;;;;5070513;28;20858;-59
2023/06/22 06:03:28;;;;;;;14.23;8.38;;;29.30;99.90;;;;;;5071548;28;20193;-58
2023/06/22 06:05:55;;;;;;;25.02;8.95;;;29.20;99.90;;;;;;5070607;28;20197;-59
2023/06/22 06:08:22;;;;;;;6.20;5.55;;;29.20;99.90;;;;;;5071345;28;20228;-59
2023/06/22 06:10:49;;;;;;;15.13;7.50;;;29.80;99.90;;;;;;5070155;28;20739;-59
2023/06/22 06:13:16;;;;;;;7.78;5.57;;;30.00;99.90;;;;;;5071353;28;20666;-66
2023/06/22 06:15:43;;;;;;;6.85;5.65;;;30.00;99.90;;;;;;5072373;28;20254;-66
2023/06/22 06:18:12;;;;;;;6.50;5.43;;;30.20;99.90;;;;;;5071468;28;20708;-66
2023/06/22 06:20:39;;;;;;;10.55;6.93;;;30.30;99.90;;;;;;5072204;28;20221;-65
2023/06/22 06:23:06;;;;;;;8.30;6.53;;;30.50;99.90;;;;;;5072046;28;20212;-65
2023/06/22 06:25:33;;;;;;;9.30;6.00;;;30.30;99.90;;;;;;5064977;28;20202;-67
2023/06/22 06:28:00;;;;;;;7.47;6.75;;;29.40;99.90;;;;;;5069915;28;20286;-59
2023/06/22 06:30:27;;;;;;;13.63;7.72;;;29.40;99.90;;;;;;5072145;28;20613;-59
2023/06/22 06:32:54;;;;;;;13.20;6.78;;;29.80;99.90;;;;;;5071953;28;20567;-59
2023/06/22 06:35:22;;;;;;;10.13;6.35;;;30.40;99.90;;;;;;5071995;28;20197;-58
2023/06/22 06:37:51;;;;;;;11.88;6.10;;;30.60;99.90;;;;;;5070251;28;20311;-67
2023/06/22 06:40:19;;;;;;;7.88;6.90;;;30.50;99.90;;;;;;5071329;28;20197;-67
2023/06/22 06:42:48;;;;;;;11.68;7.22;;;30.30;99.90;;;;;;5068012;28;20579;-70
2023/06/22 06:45:17;;;;;;;8.93;7.50;;;30.40;99.90;;;;;;5071848;28;20618;-62
2023/06/22 06:47:45;;;;;;;10.45;6.78;;;30.90;99.90;;;;;;5066634;28;20287;-63
2023/06/22 06:50:13;;;;;;;10.73;7.40;;;31.40;99.90;;;;;;5069305;28;20208;-62
2023/06/22 06:52:41;;;;;;;10.95;7.32;;;31.10;99.90;;;;;;5070311;28;20748;-62
2023/06/22 06:55:11;;;;;;;20.80;8.27;;;31.20;99.90;;;;;;5071621;28;20211;-61
2023/06/22 06:57:38;;;;;;;9.23;6.22;;;31.20;99.90;;;;;;5067429;28;20229;-61
2023/06/22 07:00:11;;;;;;;8.57;6.93;;;31.00;99.90;;;;;;5063127;28;20722;-62
2023/06/22 07:02:39;;;;;;;11.90;6.88;;;31.60;99.90;;;;;;5063577;28;20671;-62
2023/06/22 07:05:06;;;;;;;8.27;5.60;;;31.40;99.90;;;;;;5067971;28;20647;-62
2023/06/22 07:07:34;;;;;;;7.03;6.10;;;32.00;99.90;;;;;;5066124;28;20677;-62
2023/06/22 07:10:02;;;;;;;12.48;6.35;;;32.60;99.90;;;;;;5067554;28;20242;-62
2023/06/22 07:12:30;;;;;;;8.07;7.03;;;33.20;99.90;;;;;;5070389;28;20256;-61
2023/06/22 07:15:02;;;;;;;14.20;8.45;;;33.20;99.90;;;;;;5068301;28;20208;-62
2023/06/22 07:17:30;;;;;;;9.52;6.22;;;32.70;99.90;;;;;;5066355;28;20197;-62
2023/06/22 07:19:57;;;;;;;11.27;6.90;;;32.90;99.90;;;;;;5061749;28;20248;-62
2023/06/22 07:22:26;;;;;;;9.93;8.00;;;32.50;99.90;;;;;;5051297;28;20198;-61
2023/06/22 07:24:53;;;;;;;8.20;7.13;;;32.20;99.90;;;;;;5051648;28;20210;-61
2023/06/22 07:27:25;;;;;;;9.00;7.93;;;31.50;99.90;;;;;;5056652;28;20274;-61
2023/06/22 07:29:52;;;;;;;12.35;7.05;;;30.90;99.90;;;;;;5070973;28;20217;-61
2023/06/22 07:32:19;;;;;;;8.52;6.88;;;31.30;99.90;;;;;;5070721;28;20298;-61
2023/06/22 07:34:46;;;;;;;14.80;9.55;;;31.70;99.90;;;;;;5071093;28;20545;-61
2023/06/22 07:37:13;;;;;;;11.65;8.15;;;30.10;99.90;;;;;;5070605;28;20197;-61
2023/06/22 07:39:40;;;;;;;10.07;8.02;;;30.10;99.90;;;;;;5070765;28;20225;-64
2023/06/22 07:42:07;;;;;;;10.75;7.28;;;30.40;99.90;;;;;;5069744;28;20197;-64
2023/06/22 07:44:35;;;;;;;8.55;7.75;;;30.00;99.90;;;;;;5071463;28;20193;-64
2023/06/22 07:47:02;;;;;;;9.75;7.53;;;30.50;99.90;;;;;;5070567;28;20254;-63
2023/06/22 07:49:29;;;;;;;14.02;7.63;;;30.90;99.90;;;;;;5070639;28;20286;-61
2023/06/22 07:51:56;;;;;;;10.82;7.97;;;30.80;99.90;;;;;;5070405;28;20224;-61
2023/06/22 07:54:23;;;;;;;8.10;6.65;;;30.10;99.90;;;;;;5070178;28;20201;-62
2023/06/22 07:56:51;;;;;;;15.32;8.98;;;29.60;99.90;;;;;;5068529;28;20197;-61
2023/06/22 07:59:18;;;;;;;14.63;8.80;;;29.70;99.90;;;;;;5063456;28;20354;-61
2023/06/22 08:01:49;;;;;;;10.45;8.00;;;29.80;99.90;;;;;;5069974;28;20262;-62
2023/06/22 08:04:16;;;;;;;18.50;9.32;;;29.70;99.90;;;;;;5069875;28;20202;-62
2023/06/22 08:06:43;;;;;;;9.98;7.78;;;29.40;99.90;;;;;;5070318;28;20258;-61
2023/06/22 08:09:10;;;;;;;11.00;9.95;;;28.80;99.90;;;;;;5069770;28;20710;-61
2023/06/22 08:11:37;;;;;;;13.90;9.48;;;28.40;99.90;;;;;;5069802;28;20706;-61
2023/06/22 08:14:04;;;;;;;16.70;9.25;;;28.10;99.90;;;;;;5062689;28;20205;-61
2023/06/22 08:16:31;;;;;;;16.15;9.65;;;28.00;99.90;;;;;;5069926;28;20205;-61
2023/06/22 08:18:59;;;;;;;13.82;9.27;;;27.90;99.90;;;;;;5069732;28;20251;-61
2023/06/22 08:21:26;;;;;;;12.55;8.65;;;27.60;99.90;;;;;;5069985;28;20247;-61
2023/06/22 08:23:53;;;;;;;10.55;8.90;;;27.40;99.90;;;;;;5069940;28;20200;-61
2023/06/22 08:26:21;;;;;;;13.35;9.00;;;27.10;99.90;;;;;;5069437;28;20208;-61
2023/06/22 08:28:48;;;;;;;12.95;9.45;;;27.10;99.90;;;;;;5069100;28;20227;-62
2023/06/22 08:31:15;;;;;;;10.68;8.27;;;26.90;99.90;;;;;;5069645;28;20216;-62
2023/06/22 08:33:45;;;;;;;16.95;10.00;;;26.90;99.90;;;;;;5066180;28;20233;-62
2023/06/22 08:36:14;;;;;;;13.02;10.05;;;27.10;99.90;;;;;;5067978;28;20239;-61
2023/06/22 08:38:41;;;;;;;13.05;8.82;;;27.20;99.90;;;;;;5067740;28;20248;-62
2023/06/22 08:41:07;;;;;;;16.05;9.98;;;27.20;99.90;;;;;;5068390;28;20197;-61
2023/06/22 08:43:34;;;;;;;15.80;9.73;;;26.70;99.90;;;;;;5068863;28;20259;-61
2023/06/22 08:46:02;;;;;;;17.48;10.32;;;26.00;99.90;;;;;;5068340;28;20564;-62
2023/06/22 08:48:29;;;;;;;18.40;10.03;;;25.70;99.90;;;;;;5069162;28;20229;-64
2023/06/22 08:50:56;;;;;;;15.00;9.23;;;25.30;99.90;;;;;;5067591;28;20197;-63
2023/06/22 08:53:24;;;;;;;10.60;8.87;;;24.90;99.90;;;;;;5069052;28;20205;-63
2023/06/22 08:55:51;;;;;;;15.90;9.30;;;24.80;99.90;;;;;;5067250;28;20197;-64
2023/06/22 08:58:20;;;;;;;13.80;10.07;;;24.90;99.90;;;;;;5069046;28;20225;-64
2023/06/22 09:00:47;;;;;;;22.83;11.10;;;25.10;99.90;;;;;;5068663;28;20216;-63
2023/06/22 09:03:14;;;;;;;17.00;9.93;;;25.30;99.90;;;;;;5067712;28;20277;-64
2023/06/22 09:05:41;;;;;;;17.40;10.40;;;25.40;99.90;;;;;;5063689;28;20295;-63
2023/06/22 09:08:08;;;;;;;12.33;9.23;;;25.60;99.90;;;;;;5065031;28;20298;-63
2023/06/22 09:10:37;;;;;;;13.93;9.95;;;26.10;99.90;;;;;;5067967;28;20454;-61
2023/06/22 09:13:04;;;;;;;12.83;9.80;;;26.50;99.90;;;;;;5067841;28;20396;-64
2023/06/22 09:15:31;;;;;;;14.55;7.82;;;26.80;99.90;;;;;;5069445;28;20197;-66
2023/06/22 09:17:58;;;;;;;11.95;9.52;;;27.10;99.90;;;;;;5068232;28;20583;-67
2023/06/22 09:20:25;;;;;;;17.70;9.40;;;28.30;99.90;;;;;;5067308;28;20208;-65
2023/06/22 09:22:52;;;;;;;10.88;8.48;;;29.00;99.90;;;;;;5068685;28;20200;-68
2023/06/22 09:25:20;;;;;;;10.23;7.75;;;29.10;99.90;;;;;;5069588;28;20208;-66
2023/06/22 09:27:48;;;;;;;10.45;8.55;;;29.40;99.90;;;;;;5072340;28;20221;-66
2023/06/22 09:30:15;;;;;;;15.07;8.70;;;29.30;99.90;;;;;;5073491;28;20259;-66
2023/06/22 09:32:43;;;;;;;13.82;9.02;;;29.20;99.90;;;;;;5072839;28;20282;-66
2023/06/22 09:35:12;;;;;;;15.30;8.88;;;29.20;99.90;;;;;;5071426;28;20205;-66
2023/06/22 09:37:39;;;;;;;13.63;7.40;;;29.10;99.90;;;;;;5072053;28;20201;-65
2023/06/22 09:40:10;;;;;;;12.68;9.48;;;29.30;99.90;;;;;;5073141;28;20205;-64
2023/06/22 09:42:37;;;;;;;15.30;8.73;;;29.30;99.90;;;;;;5052841;28;20597;-67
2023/06/22 09:45:07;;;;;;;16.05;10.63;;;29.40;99.90;;;;;;5069082;28;20713;-65
2023/06/22 09:47:34;;;;;;;12.43;9.35;;;29.50;99.90;;;;;;5072665;28;20201;-62
2023/06/22 09:50:01;;;;;;;13.02;7.60;;;29.60;99.90;;;;;;5072560;28;20288;-63
2023/06/22 09:52:29;;;;;;;10.80;8.07;;;29.80;99.90;;;;;;5065517;28;20225;-62
2023/06/22 09:54:56;;;;;;;17.60;10.52;;;30.40;99.90;;;;;;5072510;28;20240;-63
2023/06/22 09:57:23;;;;;;;11.13;9.23;;;30.50;99.90;;;;;;5071474;28;20284;-63
2023/06/22 09:59:50;;;;;;;15.32;9.77;;;30.80;99.90;;;;;;5064347;28;20224;-65
2023/06/22 10:02:18;;;;;;;11.48;8.30;;;30.50;99.90;;;;;;5071883;28;20230;-64
2023/06/22 10:04:45;;;;;;;13.35;9.43;;;30.50;99.90;;;;;;5072674;28;20266;-64
2023/06/22 10:07:12;;;;;;;16.25;9.68;;;30.70;99.90;;;;;;5070852;28;20620;-62
2023/06/22 10:09:39;;;;;;;17.58;10.15;;;31.00;99.90;;;;;;5064153;28;20225;-63
2023/06/22 10:12:07;;;;;;;16.88;9.63;;;31.10;99.90;;;;;;5072078;28;20213;-58
2023/06/22 10:14:34;;;;;;;12.55;9.18;;;31.30;99.90;;;;;;5072017;28;20675;-58
2023/06/22 10:17:01;;;;;;;18.20;11.27;;;31.60;99.90;;;;;;5060379;28;20214;-58
2023/06/22 10:19:30;;;;;;;14.93;10.40;;;31.70;99.90;;;;;;5071684;28;20573;-58
2023/06/22 10:21:57;;;;;;;13.93;10.98;;;31.60;99.90;;;;;;5072399;28;20205;-58
2023/06/22 10:24:24;;;;;;;13.60;12.23;;;31.50;99.90;;;;;;5066143;28;20205;-58
2023/06/22 10:26:51;;;;;;;14.60;8.77;;;31.50;99.90;;;;;;5070014;28;20201;-58
2023/06/22 10:29:18;;;;;;;13.80;9.65;;;31.60;99.90;;;;;;5072380;28;20264;-59
2023/06/22 10:31:45;;;;;;;13.90;10.75;;;31.60;99.90;;;;;;5072105;28;20695;-58
2023/06/22 10:34:12;;;;;;;17.42;13.20;;;31.70;99.90;;;;;;5071815;28;20217;-58
2023/06/22 10:36:41;;;;;;;12.13;9.30;;;31.50;99.90;;;;;;5071469;28;20299;-59
2023/06/22 10:39:08;;;;;;;12.98;10.02;;;31.20;99.90;;;;;;5071491;28;20663;-58
2023/06/22 10:41:36;;;;;;;15.20;10.13;;;31.20;99.90;;;;;;5064029;28;20230;-58
2023/06/22 10:44:03;;;;;;;16.40;10.90;;;30.90;99.90;;;;;;5071225;28;20262;-58
2023/06/22 10:46:30;;;;;;;16.40;10.85;;;30.50;99.90;;;;;;5072140;28;20687;-58
2023/06/22 10:48:58;;;;;;;11.70;9.57;;;30.00;99.90;;;;;;5072012;28;20239;-58
2023/06/22 10:51:25;;;;;;;14.68;11.05;;;30.10;99.90;;;;;;5071772;28;20216;-58
2023/06/22 10:53:53;;;;;;;15.27;10.73;;;30.10;99.90;;;;;;5069283;28;20617;-64
2023/06/22 10:56:21;;;;;;;17.63;11.88;;;30.10;99.90;;;;;;5071750;28;20254;-66
2023/06/22 10:58:48;;;;;;;15.57;10.98;;;30.10;99.90;;;;;;5070518;28;20595;-65
2023/06/22 11:01:15;;;;;;;12.13;10.82;;;30.00;99.90;;;;;;5070473;28;20508;-66
2023/06/22 11:03:42;;;;;;;12.80;10.48;;;30.10;99.90;;;;;;5070273;28;20197;-68
2023/06/22 11:06:09;;;;;;;16.98;11.98;;;30.10;99.90;;;;;;5069814;28;20209;-64
2023/06/22 11:08:36;;;;;;;15.77;10.48;;;29.90;99.90;;;;;;5066597;28;20224;-65
2023/06/22 11:11:05;;;;;;;15.20;10.80;;;30.10;99.90;;;;;;5071335;28;20263;-63
2023/06/22 11:13:32;;;;;;;15.45;10.80;;;30.20;99.90;;;;;;5071064;28;20217;-66
2023/06/22 11:15:59;;;;;;;17.70;11.77;;;30.40;99.90;;;;;;5071421;28;20209;-66
2023/06/22 11:18:26;;;;;;;14.68;9.75;;;30.40;99.90;;;;;;5071336;28;20213;-67
2023/06/22 11:20:53;;;;;;;10.52;8.35;;;30.30;99.90;;;;;;5071217;28;20625;-66
2023/06/22 11:23:20;;;;;;;10.55;8.90;;;30.60;99.90;;;;;;5065180;28;20206;-68
2023/06/22 11:25:47;;;;;;;11.05;10.07;;;30.90;99.90;;;;;;5068188;28;20621;-68
2023/06/22 11:28:15;;;;;;;14.90;9.27;;;30.80;99.90;;;;;;5071217;28;20228;-58
2023/06/22 11:30:42;;;;;;;14.90;10.20;;;30.80;99.90;;;;;;5069360;28;20239;-59
2023/06/22 11:33:09;;;;;;;10.35;8.65;;;30.80;99.90;;;;;;5070880;28;20278;-58
2023/06/22 11:35:36;;;;;;;11.13;9.65;;;30.80;99.90;;;;;;5071391;28;20654;-58
2023/06/22 11:38:04;;;;;;;11.27;10.25;;;30.60;99.90;;;;;;5070983;28;20231;-58
2023/06/22 11:40:32;;;;;;;12.27;10.18;;;30.50;99.90;;;;;;5061236;28;20292;-58
2023/06/22 11:42:58;;;;;;;16.42;11.13;;;30.50;99.90;;;;;;5070782;28;20279;-58
2023/06/22 11:45:27;;;;;;;14.25;10.35;;;30.10;99.90;;;;;;5071024;28;20201;-57
2023/06/22 11:47:54;;;;;;;21.38;11.52;;;29.70;99.90;;;;;;5070992;28;20298;-58
2023/06/22 11:50:21;;;;;;;20.63;11.02;;;29.40;99.90;;;;;;5070329;28;20291;-58
2023/06/22 11:52:48;;;;;;;14.32;9.88;;;29.30;99.90;;;;;;5070293;28;20217;-58
2023/06/22 11:55:15;;;;;;;14.05;9.45;;;29.10;99.90;;;;;;5069908;28;20262;-58
2023/06/22 11:57:54;;;;;;;11.30;9.45;;;29.30;99.90;;;;;;5062680;28;20193;-58
2023/06/22 12:00:23;;;;;;;10.98;8.85;;;29.30;99.90;;;;;;5082922;22;20233;-56
2023/06/22 12:02:52;;;;;;;18.63;11.43;;;29.50;99.90;;;;;;5051352;28;20547;-55
2023/06/22 12:05:20;;;;;;;12.50;10.35;;;29.70;99.90;;;;;;5052323;28;20305;-55
2023/06/22 12:07:47;;;;;;;14.70;8.63;;;29.70;99.90;;;;;;5039114;28;20249;-56
2023/06/22 12:10:14;;;;;;;10.00;8.88;;;29.80;99.90;;;;;;5032024;28;20276;-55
2023/06/22 12:12:42;;;;;;;11.15;8.32;;;29.90;99.90;;;;;;5046031;28;20255;-56
2023/06/22 12:15:11;;;;;;;13.48;9.45;;;29.70;99.90;;;;;;5041551;28;20286;-56
2023/06/22 12:17:38;;;;;;;13.52;10.55;;;29.60;99.90;;;;;;5047808;28;20217;-55
2023/06/22 12:20:08;;;;;;;12.13;8.93;;;29.50;99.90;;;;;;5052021;28;20256;-55
2023/06/22 12:22:37;;;;;;;20.38;9.77;;;29.50;99.90;;;;;;5051878;28;20640;-56
2023/06/22 12:25:05;;;;;;;11.93;8.40;;;29.50;99.90;;;;;;5051479;28;20206;-55
2023/06/22 12:27:31;;;;;;;16.92;8.20;;;29.50;99.90;;;;;;5052094;28;20205;-56
2023/06/22 12:29:58;;;;;;;16.95;10.60;;;29.50;99.90;;;;;;5051266;28;20205;-55
2023/06/22 12:32:26;;;;;;;13.48;10.02;;;29.50;99.90;;;;;;5042341;28;20765;-53
2023/06/22 12:34:53;;;;;;;11.77;9.07;;;29.30;99.90;;;;;;5051461;28;20209;-53
2023/06/22 12:37:21;;;;;;;14.82;9.18;;;29.30;99.90;;;;;;5051687;28;20554;-54
2023/06/22 12:39:48;;;;;;;10.25;8.38;;;29.40;99.90;;;;;;5051852;28;20197;-54
2023/06/22 12:42:16;;;;;;;13.73;7.68;;;29.40;99.90;;;;;;5051704;28;20646;-53